createdAt,value
2023-04-09T00:03:39.495Z,4.90
2023-04-09T00:08:41.731Z,3.70
2023-04-09T00:13:43.895Z,5.75
2023-04-09T00:18:46.399Z,4.07
2023-04-09T00:23:48.453Z,6.07
2023-04-09T00:28:50.772Z,4.88
2023-04-09T00:33:53.136Z,3.22
2023-04-09T00:38:55.633Z,7.45
2023-04-09T00:43:58.188Z,3.30
2023-04-09T00:49:00.621Z,4.47
2023-04-09T00:54:02.747Z,2.53
2023-04-09T00:59:05.502Z,3.00
2023-04-09T01:04:08.104Z,3.33
2023-04-09T01:09:24.817Z,1.63
2023-04-09T01:14:36.473Z,2.88
2023-04-09T01:20:04.049Z,6.53
2023-04-09T01:25:34.294Z,3.92
2023-04-09T01:30:36.451Z,1.95
2023-04-09T01:35:41.308Z,1.75
2023-04-09T01:40:44.044Z,2.15
2023-04-09T01:45:47.225Z,5.43
2023-04-09T01:50:50.701Z,6.00
2023-04-09T01:55:52.793Z,2.08
2023-04-09T02:01:01.240Z,2.08
2023-04-09T02:06:12.002Z,1.92
2023-04-09T02:11:16.252Z,4.45
2023-04-09T02:16:19.017Z,2.67
2023-04-09T02:21:22.021Z,3.55
2023-04-09T02:26:24.704Z,3.72
2023-04-09T02:31:26.881Z,3.75
2023-04-09T02:36:29.415Z,5.05
2023-04-09T02:41:31.736Z,2.55
2023-04-09T02:46:33.920Z,4.00
2023-04-09T02:51:36.485Z,3.20
2023-04-09T02:56:38.722Z,2.35
2023-04-09T03:01:41.090Z,4.35
2023-04-09T03:06:43.239Z,2.97
2023-04-09T03:11:45.436Z,3.15
2023-04-09T03:16:47.492Z,4.18
2023-04-09T03:21:50.978Z,3.08
2023-04-09T03:26:57.683Z,5.43
2023-04-09T03:32:00.658Z,10.23
2023-04-09T03:37:02.946Z,3.95
2023-04-09T03:42:07.162Z,4.20
2023-04-09T03:47:18.871Z,4.82
2023-04-09T03:52:21.192Z,3.28
2023-04-09T03:57:31.798Z,5.03
2023-04-09T04:02:34.479Z,2.63
2023-04-09T04:07:40.139Z,6.50
2023-04-09T04:12:47.320Z,3.75
2023-04-09T04:17:56.082Z,7.25
2023-04-09T04:23:12.422Z,5.90
2023-04-09T04:28:23.681Z,4.35
2023-04-09T04:33:25.941Z,6.45
2023-04-09T04:38:30.152Z,4.45
2023-04-09T04:43:35.453Z,5.30
2023-04-09T04:48:37.688Z,3.22
2023-04-09T04:53:39.918Z,6.63
2023-04-09T04:58:47.312Z,7.38
2023-04-09T05:03:51.779Z,7.80
2023-04-09T05:09:11.704Z,6.50
2023-04-09T05:14:22.498Z,7.53
2023-04-09T05:19:24.774Z,5.22
2023-04-09T05:24:33.398Z,6.83
2023-04-09T05:29:36.139Z,5.15
2023-04-09T05:34:41.706Z,5.82
2023-04-09T05:39:43.858Z,4.68
2023-04-09T05:44:46.120Z,9.30
2023-04-09T05:49:52.639Z,5.28
2023-04-09T05:54:54.755Z,4.35
2023-04-09T06:00:03.540Z,4.53
2023-04-09T06:05:18.607Z,4.63
2023-04-09T06:10:22.329Z,6.57
2023-04-09T06:15:25.060Z,2.95
2023-04-09T06:20:27.210Z,4.38
2023-04-09T06:25:29.413Z,7.32
2023-04-09T06:30:32.080Z,5.45
2023-04-09T06:35:34.264Z,6.22
2023-04-09T06:40:39.782Z,10.77
2023-04-09T06:45:41.941Z,7.97
2023-04-09T06:50:44.967Z,7.18
2023-04-09T06:55:47.079Z,8.38
2023-04-09T07:00:49.274Z,4.05
2023-04-09T07:05:52.040Z,4.53
2023-04-09T07:10:54.141Z,5.65
2023-04-09T07:15:56.233Z,5.22
2023-04-09T07:20:59.272Z,7.80
2023-04-09T07:26:07.712Z,5.97
2023-04-09T07:31:09.818Z,10.35
2023-04-09T07:36:11.960Z,6.07
2023-04-09T07:41:14.431Z,4.13
2023-04-09T07:46:21.259Z,2.90
2023-04-09T07:51:23.404Z,6.00
2023-04-09T07:56:26.014Z,4.82
2023-04-09T08:01:28.376Z,4.13
2023-04-09T08:06:31.159Z,4.35
2023-04-09T08:11:33.301Z,2.90
2023-04-09T08:16:35.547Z,4.28
2023-04-09T08:21:39.198Z,5.53
2023-04-09T08:26:42.562Z,6.38
2023-04-09T08:31:44.892Z,3.35
2023-04-09T08:36:47.673Z,5.50
2023-04-09T08:41:50.992Z,3.22
2023-04-09T08:46:54.093Z,3.20
2023-04-09T08:51:56.419Z,4.47
2023-04-09T08:56:58.887Z,4.40
2023-04-09T09:02:08.664Z,4.43
2023-04-09T09:07:11.216Z,6.82
2023-04-09T09:12:39.501Z,3.95
2023-04-09T09:17:55.870Z,2.53
2023-04-09T09:22:58.121Z,2.10
2023-04-09T09:28:11.391Z,2.55
2023-04-09T09:33:13.442Z,3.25
2023-04-09T09:38:16.367Z,3.33
2023-04-09T09:43:18.488Z,5.68
2023-04-09T09:48:20.583Z,2.92
2023-04-09T09:53:25.079Z,2.97
2023-04-09T09:58:40.951Z,1.70
2023-04-09T10:03:44.627Z,2.00
2023-04-09T10:08:51.250Z,2.22
2023-04-09T10:14:00.579Z,1.38
2023-04-09T10:24:07.957Z,2.15
2023-04-09T10:29:15.187Z,1.45
2023-04-09T10:34:19.196Z,2.40
2023-04-09T10:39:21.560Z,0.73
2023-04-09T10:44:26.397Z,2.03
2023-04-09T10:49:39.990Z,2.25
2023-04-09T10:54:46.289Z,1.98
2023-04-09T10:59:54.011Z,1.27
2023-04-09T11:05:25.035Z,1.10
2023-04-09T11:10:27.146Z,2.50
2023-04-09T11:15:29.819Z,1.25
2023-04-09T11:20:34.413Z,4.40
2023-04-09T11:25:36.470Z,1.30
2023-04-09T11:30:38.662Z,1.67
2023-04-09T11:35:40.859Z,1.33
2023-04-09T11:40:48.743Z,0.77
2023-04-09T11:45:51.585Z,1.53
2023-04-09T11:50:53.912Z,0.70
2023-04-09T11:55:56.355Z,0.80
2023-04-09T12:00:59.272Z,0.65
2023-04-09T12:06:03.141Z,0.60
2023-04-09T12:11:10.686Z,0.75
2023-04-09T12:16:14.154Z,1.08
2023-04-09T12:21:19.125Z,2.30
2023-04-09T12:26:21.652Z,1.25
2023-04-09T12:31:23.760Z,3.13
2023-04-09T12:36:26.552Z,3.45
2023-04-09T12:41:28.679Z,1.42
2023-04-09T12:46:32.503Z,2.50
2023-04-09T12:51:34.853Z,1.80
2023-04-09T12:56:36.919Z,2.47
2023-04-09T13:01:41.380Z,2.03
2023-04-09T13:06:44.910Z,0.65
2023-04-09T13:11:46.984Z,1.27
2023-04-09T13:16:50.177Z,0.65
2023-04-09T13:21:52.444Z,0.30
2023-04-09T13:26:54.552Z,0.20
2023-04-09T13:31:57.963Z,0.40
2023-04-09T13:37:00.517Z,0.73
2023-04-09T13:42:09.917Z,1.33
2023-04-09T13:47:16.914Z,0.55
2023-04-09T13:52:19.266Z,0.85
2023-04-09T13:57:21.383Z,0.57
2023-04-09T14:02:23.943Z,1.65
2023-04-09T14:07:26.570Z,1.75
2023-04-09T14:12:28.667Z,3.50
2023-04-09T14:17:30.785Z,0.60
2023-04-09T14:22:33.016Z,0.50
2023-04-09T14:27:35.290Z,0.60
2023-04-09T14:32:37.834Z,2.15
2023-04-09T14:37:41.084Z,0.68
2023-04-09T14:42:45.578Z,0.22
2023-04-09T14:47:47.603Z,1.50
2023-04-09T14:52:49.806Z,1.55
2023-04-09T14:57:51.904Z,0.90
2023-04-09T15:02:54.378Z,0.43
2023-04-09T15:07:57.982Z,1.40
2023-04-09T15:13:00.204Z,2.35
2023-04-09T15:18:05.775Z,0.25
2023-04-09T15:23:08.671Z,2.40
2023-04-09T15:28:11.383Z,3.22
2023-04-09T15:33:13.742Z,1.45
2023-04-09T15:38:17.203Z,1.80
2023-04-09T15:43:19.330Z,1.45
2023-04-09T15:48:21.402Z,0.85
2023-04-09T15:53:26.699Z,2.97
2023-04-09T15:58:28.947Z,1.00
2023-04-09T16:03:35.413Z,2.60
2023-04-09T16:08:39.843Z,0.90
2023-04-09T16:13:42.537Z,0.85
2023-04-09T16:18:44.971Z,0.82
2023-04-09T16:23:47.675Z,1.13
2023-04-09T16:28:49.827Z,0.95
2023-04-09T16:33:51.896Z,1.58
2023-04-09T16:38:54.150Z,1.08
2023-04-09T16:43:56.408Z,2.20
2023-04-09T16:48:58.438Z,2.38
2023-04-09T16:54:00.964Z,6.45
2023-04-09T16:59:03.112Z,1.20
2023-04-09T17:04:05.325Z,1.13
2023-04-09T17:09:07.500Z,1.52
2023-04-09T17:14:09.609Z,1.00
2023-04-09T17:19:11.776Z,3.58
2023-04-09T17:24:13.892Z,5.55
2023-04-09T17:29:16.713Z,3.95
2023-04-09T17:34:19.287Z,0.98
2023-04-09T17:39:21.412Z,3.60
2023-04-09T17:44:25.322Z,1.52
2023-04-09T17:49:31.458Z,2.03
2023-04-09T17:54:38.069Z,5.35
2023-04-09T17:59:40.945Z,3.90
2023-04-09T18:04:43.356Z,9.43
2023-04-09T18:09:45.761Z,6.03
2023-04-09T18:14:49.499Z,5.53
2023-04-09T18:19:54.289Z,5.95
2023-04-09T18:24:56.607Z,5.72
2023-04-09T18:29:59.381Z,6.07
2023-04-09T18:35:01.762Z,2.90
2023-04-09T18:40:04.192Z,9.88
2023-04-09T18:45:06.783Z,9.82
2023-04-09T18:50:09.643Z,6.35
2023-04-09T18:55:12.138Z,5.53
2023-04-09T19:00:14.776Z,8.48
2023-04-09T19:05:17.436Z,6.70
2023-04-09T19:10:19.642Z,4.90
2023-04-09T19:15:29.424Z,5.55
2023-04-09T19:20:31.809Z,10.52
2023-04-09T19:25:34.212Z,5.32
2023-04-09T19:30:36.287Z,8.55
2023-04-09T19:35:40.823Z,5.85
2023-04-09T19:40:43.150Z,8.10
2023-04-09T19:45:45.394Z,5.00
2023-04-09T19:50:48.934Z,11.02
2023-04-09T19:55:51.638Z,3.03
2023-04-09T20:00:53.860Z,8.15
2023-04-09T20:05:55.981Z,7.50
2023-04-09T20:10:58.113Z,8.73
2023-04-09T20:16:00.669Z,6.18
2023-04-09T20:21:02.772Z,7.75
2023-04-09T20:26:05.079Z,8.13
2023-04-09T20:31:07.789Z,11.82
2023-04-09T20:36:17.664Z,7.43
2023-04-09T20:41:19.910Z,7.22
2023-04-09T20:46:22.110Z,7.60
2023-04-09T20:51:24.271Z,8.20
2023-04-09T20:56:26.615Z,10.60
2023-04-09T21:01:28.817Z,9.15
2023-04-09T21:06:31.204Z,8.20
2023-04-09T21:11:33.407Z,8.65
2023-04-09T21:16:35.850Z,8.27
2023-04-09T21:21:38.274Z,12.73
2023-04-09T21:26:50.927Z,9.25
2023-04-09T21:31:54.105Z,9.70
2023-04-09T21:36:56.214Z,14.85
2023-04-09T21:41:58.336Z,8.15
2023-04-09T21:47:01.758Z,13.85
2023-04-09T21:52:03.922Z,15.52
2023-04-09T21:57:06.653Z,15.43
2023-04-09T22:02:09.416Z,8.90
2023-04-09T22:07:12.005Z,13.43
2023-04-09T22:12:14.161Z,16.55
2023-04-09T22:17:17.240Z,16.23
2023-04-09T22:22:19.348Z,26.08
2023-04-09T22:27:21.827Z,25.27
2023-04-09T22:32:23.933Z,21.30
2023-04-09T22:37:26.105Z,15.88
2023-04-09T22:42:28.188Z,14.55
2023-04-09T22:47:30.502Z,20.63
2023-04-09T22:52:32.736Z,21.73
2023-04-09T22:57:36.088Z,21.85
2023-04-09T23:02:38.353Z,22.17
2023-04-09T23:07:42.721Z,13.40
2023-04-09T23:12:44.969Z,16.33
2023-04-09T23:17:47.391Z,13.73
2023-04-09T23:22:50.040Z,12.07
2023-04-09T23:27:52.209Z,15.77
2023-04-09T23:32:56.317Z,13.98
2023-04-09T23:37:59.619Z,12.52
2023-04-09T23:43:02.814Z,7.70
2023-04-09T23:48:07.473Z,9.95
2023-04-09T23:53:09.736Z,12.25
2023-04-09T23:58:13.011Z,18.10
